createdAt,value
2023-04-27T00:02:07.908Z,80.15
2023-04-27T00:04:34.533Z,80.19
2023-04-27T00:07:01.441Z,80.50
2023-04-27T00:09:27.783Z,80.32
2023-04-27T00:11:54.671Z,80.52
2023-04-27T00:14:21.229Z,80.89
2023-04-27T00:16:48.005Z,80.77
2023-04-27T00:19:15.379Z,81.24
2023-04-27T00:21:42.136Z,80.91
2023-04-27T00:24:08.576Z,80.99
2023-04-27T00:26:34.919Z,80.94
2023-04-27T00:29:01.554Z,80.91
2023-04-27T00:31:28.925Z,80.86
2023-04-27T00:33:55.418Z,80.91
2023-04-27T00:36:21.856Z,80.82
2023-04-27T00:38:48.299Z,81.07
2023-04-27T00:41:14.723Z,80.99
2023-04-27T00:43:43.558Z,81.11
2023-04-27T00:46:11.694Z,81.47
2023-04-27T00:48:38.173Z,81.50
2023-04-27T00:51:05.565Z,81.61
2023-04-27T00:53:32.804Z,81.75
2023-04-27T00:55:59.267Z,81.92
2023-04-27T00:58:25.977Z,81.82
2023-04-27T01:00:52.543Z,81.83
2023-04-27T01:03:19.190Z,81.60
2023-04-27T01:05:45.761Z,81.85
2023-04-27T01:08:12.084Z,81.70
2023-04-27T01:10:38.791Z,82.05
2023-04-27T01:13:05.458Z,82.45
2023-04-27T01:15:31.772Z,82.12
2023-04-27T01:18:02.076Z,82.16
2023-04-27T01:20:32.660Z,82.03
2023-04-27T01:23:02.832Z,82.22
2023-04-27T01:25:32.505Z,82.29
2023-04-27T01:28:01.817Z,82.24
2023-04-27T01:30:28.685Z,82.14
2023-04-27T01:32:55.080Z,82.36
2023-04-27T01:35:21.477Z,82.60
2023-04-27T01:37:47.956Z,82.48
2023-04-27T01:40:15.247Z,82.54
2023-04-27T01:42:42.005Z,82.44
2023-04-27T01:45:12.213Z,82.38
2023-04-27T01:47:38.998Z,82.51
2023-04-27T01:50:06.201Z,82.65
2023-04-27T01:52:35.456Z,82.73
2023-04-27T01:55:02.129Z,82.71
2023-04-27T01:57:28.505Z,82.79
2023-04-27T01:59:56.760Z,82.65
2023-04-27T02:02:23.309Z,82.50
2023-04-27T02:04:52.686Z,82.58
2023-04-27T02:07:19.173Z,82.58
2023-04-27T02:09:45.551Z,82.77
2023-04-27T02:12:11.931Z,82.68
2023-04-27T02:14:41.305Z,82.76
2023-04-27T02:17:11.346Z,82.83
2023-04-27T02:19:40.288Z,82.94
2023-04-27T02:22:09.692Z,82.78
2023-04-27T02:24:36.598Z,82.91
2023-04-27T02:27:03.821Z,82.86
2023-04-27T02:29:33.845Z,82.82
2023-04-27T02:32:01.219Z,83.18
2023-04-27T02:34:30.979Z,82.84
2023-04-27T02:36:57.533Z,82.85
2023-04-27T02:39:23.957Z,82.75
2023-04-27T02:41:53.191Z,82.73
2023-04-27T02:44:23.883Z,82.79
2023-04-27T02:46:53.760Z,82.73
2023-04-27T02:49:25.726Z,82.93
2023-04-27T02:51:56.372Z,82.70
2023-04-27T02:54:22.923Z,82.61
2023-04-27T02:56:49.419Z,82.96
2023-04-27T02:59:16.096Z,83.11
2023-04-27T03:01:42.850Z,82.95
2023-04-27T03:04:09.555Z,82.90
2023-04-27T03:06:36.168Z,83.03
2023-04-27T03:09:03.699Z,83.13
2023-04-27T03:11:30.065Z,82.90
2023-04-27T03:13:56.410Z,83.11
2023-04-27T03:16:22.803Z,83.16
2023-04-27T03:18:49.142Z,83.31
2023-04-27T03:21:16.951Z,83.59
2023-04-27T03:23:43.284Z,83.27
2023-04-27T03:26:14.178Z,83.02
2023-04-27T03:28:41.820Z,83.00
2023-04-27T03:31:13.567Z,83.08
2023-04-27T03:33:45.141Z,82.94
2023-04-27T03:36:12.430Z,83.24
2023-04-27T03:38:38.777Z,83.36
2023-04-27T03:41:05.224Z,83.58
2023-04-27T03:43:31.570Z,83.18
2023-04-27T03:45:58.062Z,83.40
2023-04-27T03:48:24.535Z,83.47
2023-04-27T03:50:51.678Z,83.02
2023-04-27T03:53:18.227Z,82.96
2023-04-27T03:55:45.171Z,83.25
2023-04-27T03:58:12.003Z,83.37
2023-04-27T04:00:39.131Z,83.26
2023-04-27T04:03:06.832Z,83.28
2023-04-27T04:05:33.581Z,83.12
2023-04-27T04:08:00.779Z,83.20
2023-04-27T04:10:27.145Z,83.40
2023-04-27T04:12:53.512Z,83.12
2023-04-27T04:15:20.309Z,83.25
2023-04-27T04:17:47.482Z,83.32
2023-04-27T04:20:13.943Z,83.19
2023-04-27T04:22:40.304Z,83.39
2023-04-27T04:25:07.320Z,83.67
2023-04-27T04:27:33.666Z,83.66
2023-04-27T04:30:06.347Z,83.51
2023-04-27T04:32:38.938Z,83.60
2023-04-27T04:35:12.370Z,83.63
2023-04-27T04:37:46.798Z,83.74
2023-04-27T04:40:13.936Z,83.84
2023-04-27T04:42:40.447Z,83.72
2023-04-27T04:45:07.505Z,83.82
2023-04-27T04:47:34.168Z,83.77
2023-04-27T04:50:00.963Z,83.91
2023-04-27T04:52:27.355Z,83.89
2023-04-27T04:54:57.690Z,83.99
2023-04-27T04:57:26.109Z,84.01
2023-04-27T04:59:54.122Z,83.48
2023-04-27T05:02:21.163Z,83.86
2023-04-27T05:04:47.725Z,83.60
2023-04-27T05:07:23.283Z,83.60
2023-04-27T05:09:52.866Z,83.67
2023-04-27T05:12:22.846Z,83.72
2023-04-27T05:14:54.888Z,83.54
2023-04-27T05:17:21.410Z,83.57
2023-04-27T05:19:47.816Z,83.31
2023-04-27T05:22:14.139Z,83.73
2023-04-27T05:24:40.848Z,83.85
2023-04-27T05:27:07.404Z,83.96
2023-04-27T05:29:33.867Z,84.11
2023-04-27T05:32:01.903Z,83.97
2023-04-27T05:34:31.067Z,83.78
2023-04-27T05:36:59.590Z,83.66
2023-04-27T05:39:28.546Z,83.96
2023-04-27T05:41:58.975Z,84.02
2023-04-27T05:44:30.620Z,84.00
2023-04-27T05:46:57.519Z,84.07
2023-04-27T05:49:28.035Z,83.84
2023-04-27T05:51:56.035Z,83.90
2023-04-27T05:54:25.495Z,84.06
2023-04-27T05:56:52.233Z,84.96
2023-04-27T05:59:18.657Z,83.90
2023-04-27T06:01:44.976Z,82.19
2023-04-27T06:04:11.375Z,81.46
2023-04-27T06:06:38.222Z,80.29
2023-04-27T06:09:05.033Z,79.25
2023-04-27T06:11:31.362Z,78.79
2023-04-27T06:13:57.735Z,78.39
2023-04-27T06:16:24.234Z,78.04
2023-04-27T06:18:56.070Z,78.64
2023-04-27T06:21:24.981Z,78.93
2023-04-27T06:23:55.001Z,78.50
2023-04-27T06:26:21.390Z,79.56
2023-04-27T06:28:47.727Z,75.65
2023-04-27T06:31:14.153Z,73.35
2023-04-27T06:33:41.250Z,67.89
2023-04-27T06:36:07.884Z,64.36
2023-04-27T06:38:34.228Z,65.26
2023-04-27T06:41:00.721Z,66.11
2023-04-27T06:43:27.099Z,65.01
2023-04-27T06:45:53.494Z,63.68
2023-04-27T06:48:20.179Z,57.93
2023-04-27T06:50:48.952Z,51.58
2023-04-27T06:53:17.349Z,47.24
2023-04-27T06:55:45.578Z,44.48
2023-04-27T06:58:13.237Z,44.90
2023-04-27T07:00:39.621Z,44.76
2023-04-27T07:03:07.958Z,44.50
2023-04-27T07:05:34.911Z,42.99
2023-04-27T07:08:05.193Z,45.75
2023-04-27T07:10:33.520Z,47.14
2023-04-27T07:13:00.005Z,48.96
2023-04-27T07:15:26.670Z,48.95
2023-04-27T07:17:54.101Z,50.14
2023-04-27T07:20:20.556Z,52.13
2023-04-27T07:22:46.940Z,51.42
2023-04-27T07:25:13.572Z,51.26
2023-04-27T07:27:41.495Z,50.38
2023-04-27T07:30:11.142Z,50.27
2023-04-27T07:32:40.240Z,48.31
2023-04-27T07:35:07.003Z,45.20
2023-04-27T07:37:33.528Z,46.29
2023-04-27T07:39:59.873Z,46.55
2023-04-27T07:42:26.292Z,47.76
2023-04-27T07:44:52.982Z,48.17
2023-04-27T07:47:19.396Z,48.76
2023-04-27T07:49:48.942Z,49.68
2023-04-27T07:52:15.803Z,49.71
2023-04-27T07:54:47.056Z,50.46
2023-04-27T07:57:13.414Z,50.59
2023-04-27T07:59:40.158Z,50.20
2023-04-27T08:02:17.743Z,49.69
2023-04-27T08:04:45.860Z,50.49
2023-04-27T08:07:12.899Z,50.62
2023-04-27T08:09:39.496Z,50.47
2023-04-27T08:12:05.982Z,50.38
2023-04-27T08:14:34.830Z,51.64
2023-04-27T08:17:01.227Z,50.79
2023-04-27T08:19:27.787Z,50.77
2023-04-27T08:21:54.114Z,50.17
2023-04-27T08:24:21.061Z,50.35
2023-04-27T08:26:48.018Z,51.78
2023-04-27T08:29:26.959Z,50.58
2023-04-27T08:31:56.459Z,50.99
2023-04-27T08:34:23.398Z,50.80
2023-04-27T08:36:50.086Z,51.61
2023-04-27T08:39:18.019Z,52.89
2023-04-27T08:41:44.581Z,50.69
2023-04-27T08:44:11.054Z,50.92
2023-04-27T08:46:38.228Z,53.31
2023-04-27T08:49:05.798Z,52.86
2023-04-27T08:51:32.933Z,51.32
2023-04-27T08:53:59.685Z,50.84
2023-04-27T08:56:28.285Z,51.87
2023-04-27T08:58:56.348Z,51.91
2023-04-27T09:01:25.073Z,54.29
2023-04-27T09:03:59.827Z,51.40
2023-04-27T09:06:36.059Z,49.64
2023-04-27T09:09:03.651Z,49.71
2023-04-27T09:11:36.575Z,51.57
2023-04-27T09:14:15.546Z,50.40
2023-04-27T09:16:42.564Z,49.27
2023-04-27T09:19:09.449Z,50.48
2023-04-27T09:21:35.772Z,47.90
2023-04-27T09:24:13.030Z,48.47
2023-04-27T09:26:39.926Z,48.92
2023-04-27T09:29:06.272Z,49.88
2023-04-27T09:31:34.020Z,52.87
2023-04-27T09:34:00.626Z,49.23
2023-04-27T09:36:33.360Z,49.12
2023-04-27T09:39:06.662Z,49.37
2023-04-27T09:41:33.294Z,49.67
2023-04-27T09:44:00.415Z,48.99
2023-04-27T09:46:28.890Z,47.19
2023-04-27T09:48:56.485Z,47.54
2023-04-27T09:51:22.818Z,48.59
2023-04-27T09:53:52.707Z,48.37
2023-04-27T09:56:41.637Z,46.26
2023-04-27T09:59:29.541Z,47.49
2023-04-27T10:02:00.128Z,47.57
2023-04-27T10:04:54.240Z,48.06
2023-04-27T10:07:24.253Z,46.32
2023-04-27T10:09:51.990Z,46.93
2023-04-27T10:12:36.855Z,46.53
2023-04-27T10:15:15.278Z,46.84
2023-04-27T10:17:58.611Z,46.68
2023-04-27T10:20:33.151Z,47.42
2023-04-27T10:23:00.795Z,47.58
2023-04-27T10:25:29.622Z,44.95
2023-04-27T10:27:59.345Z,45.00
2023-04-27T10:30:31.284Z,45.01
2023-04-27T10:33:01.038Z,44.29
2023-04-27T10:35:36.643Z,45.05
2023-04-27T10:38:11.044Z,45.64
2023-04-27T10:40:38.758Z,45.07
2023-04-27T10:43:16.047Z,46.58
2023-04-27T10:45:43.595Z,46.27
2023-04-27T10:48:13.191Z,45.62
2023-04-27T10:50:41.410Z,43.91
2023-04-27T10:53:08.488Z,45.60
2023-04-27T10:55:35.997Z,45.16
2023-04-27T10:58:03.799Z,43.75
2023-04-27T11:00:36.594Z,42.93
2023-04-27T11:03:34.741Z,42.76
2023-04-27T11:06:05.859Z,43.52
2023-04-27T11:08:36.615Z,45.22
2023-04-27T11:11:03.746Z,41.46
2023-04-27T11:13:30.855Z,44.06
2023-04-27T11:15:59.256Z,42.71
2023-04-27T11:18:29.388Z,40.66
2023-04-27T11:21:08.486Z,41.81
2023-04-27T11:23:37.974Z,41.80
2023-04-27T11:26:18.548Z,39.18
2023-04-27T11:29:12.276Z,40.65
2023-04-27T11:31:48.861Z,42.00
2023-04-27T11:34:17.295Z,38.91
2023-04-27T11:36:43.916Z,37.48
2023-04-27T11:39:19.600Z,39.47
2023-04-27T11:41:46.437Z,40.10
2023-04-27T11:44:13.076Z,40.29
2023-04-27T11:46:41.172Z,41.60
2023-04-27T11:49:09.822Z,40.23
2023-04-27T11:51:36.356Z,41.24
2023-04-27T11:54:05.946Z,40.13
2023-04-27T11:56:40.546Z,39.89
2023-04-27T11:59:21.664Z,39.52
2023-04-27T12:01:48.268Z,41.61
2023-04-27T12:04:15.015Z,38.05
2023-04-27T12:06:42.035Z,40.02
2023-04-27T12:09:08.800Z,37.27
2023-04-27T12:11:37.304Z,37.97
2023-04-27T12:14:03.913Z,36.62
2023-04-27T12:16:30.347Z,37.57
2023-04-27T12:18:56.864Z,37.34
2023-04-27T12:21:23.720Z,37.12
2023-04-27T12:23:50.069Z,37.03
2023-04-27T12:26:16.438Z,35.10
2023-04-27T12:28:43.086Z,38.08
2023-04-27T12:31:16.345Z,39.49
2023-04-27T12:33:44.220Z,35.72
2023-04-27T12:36:10.574Z,36.15
2023-04-27T12:38:37.113Z,37.83
2023-04-27T12:41:03.495Z,38.76
2023-04-27T12:43:29.892Z,36.65
2023-04-27T12:45:56.253Z,37.85
2023-04-27T12:48:23.463Z,34.83
2023-04-27T12:50:50.154Z,35.56
2023-04-27T12:53:16.775Z,36.48
2023-04-27T12:55:43.194Z,37.86
2023-04-27T12:58:09.754Z,34.59
2023-04-27T13:00:36.086Z,36.43
2023-04-27T13:03:02.702Z,37.09
2023-04-27T13:05:32.183Z,36.44
2023-04-27T13:07:58.956Z,34.83
2023-04-27T13:10:29.045Z,35.15
2023-04-27T13:12:55.468Z,35.44
2023-04-27T13:15:21.948Z,35.86
2023-04-27T13:17:48.488Z,36.67
2023-04-27T13:20:15.436Z,34.88
2023-04-27T13:22:42.251Z,35.69
2023-04-27T13:25:09.651Z,35.99
2023-04-27T13:27:36.787Z,33.96
2023-04-27T13:30:05.346Z,36.68
2023-04-27T13:32:31.887Z,35.60
2023-04-27T13:34:58.518Z,34.58
2023-04-27T13:37:25.432Z,35.13
2023-04-27T13:39:51.760Z,37.02
2023-04-27T13:42:18.242Z,36.26
2023-04-27T13:44:44.595Z,35.76
2023-04-27T13:47:11.082Z,36.52
2023-04-27T13:49:37.591Z,35.21
2023-04-27T13:52:03.956Z,35.67
2023-04-27T13:54:30.373Z,34.86
2023-04-27T13:56:57.799Z,34.71
2023-04-27T13:59:24.289Z,34.44
2023-04-27T14:01:50.814Z,34.77
2023-04-27T14:04:17.255Z,35.04
2023-04-27T14:06:45.718Z,36.89
2023-04-27T14:09:12.164Z,36.58
2023-04-27T14:11:52.436Z,35.54
2023-04-27T14:14:22.684Z,34.04
2023-04-27T14:16:50.998Z,34.30
2023-04-27T14:19:18.563Z,34.56
2023-04-27T14:21:44.921Z,33.11
2023-04-27T14:24:11.250Z,34.75
2023-04-27T14:26:37.552Z,35.78
2023-04-27T14:29:03.913Z,34.05
2023-04-27T14:31:30.681Z,33.63
2023-04-27T14:33:57.091Z,35.98
2023-04-27T14:36:23.446Z,36.13
2023-04-27T14:38:49.763Z,35.63
2023-04-27T14:41:16.133Z,35.97
2023-04-27T14:43:44.660Z,35.68
2023-04-27T14:46:20.274Z,36.51
2023-04-27T14:48:48.073Z,37.72
2023-04-27T14:51:15.374Z,36.75
2023-04-27T14:53:42.427Z,34.01
2023-04-27T14:56:08.765Z,35.16
2023-04-27T14:58:35.078Z,35.85
2023-04-27T15:01:01.622Z,34.94
2023-04-27T15:03:30.141Z,35.20
2023-04-27T15:06:00.435Z,35.11
2023-04-27T15:08:26.928Z,36.08
2023-04-27T15:10:59.492Z,34.61
2023-04-27T15:13:26.639Z,35.64
2023-04-27T15:15:57.310Z,35.06
2023-04-27T15:18:24.651Z,34.78
2023-04-27T15:20:55.589Z,35.30
2023-04-27T15:23:23.762Z,35.58
2023-04-27T15:25:52.002Z,34.41
2023-04-27T15:28:18.514Z,35.25
2023-04-27T15:30:45.340Z,34.79
2023-04-27T15:33:12.991Z,34.86
2023-04-27T15:35:40.407Z,33.65
2023-04-27T15:38:08.327Z,34.31
2023-04-27T15:40:35.471Z,34.57
2023-04-27T15:43:02.795Z,34.52
2023-04-27T15:45:29.728Z,35.62
2023-04-27T15:47:56.342Z,35.30
2023-04-27T15:50:22.885Z,35.08
2023-04-27T15:52:49.591Z,34.94
2023-04-27T15:55:16.496Z,35.76
2023-04-27T15:57:42.848Z,37.32
2023-04-27T16:00:13.163Z,37.06
2023-04-27T16:02:40.192Z,36.16
2023-04-27T16:05:07.815Z,36.01
2023-04-27T16:07:36.233Z,36.18
2023-04-27T16:10:04.091Z,36.91
2023-04-27T16:12:30.830Z,36.33
2023-04-27T16:14:57.374Z,36.46
2023-04-27T16:17:25.098Z,38.72
2023-04-27T16:19:51.594Z,38.84
2023-04-27T16:22:18.041Z,40.38
2023-04-27T16:24:44.608Z,40.76
2023-04-27T16:27:11.535Z,39.49
2023-04-27T16:29:37.885Z,38.62
2023-04-27T16:32:04.332Z,38.09
2023-04-27T16:34:30.724Z,38.46
2023-04-27T16:36:57.100Z,38.22
2023-04-27T16:39:23.920Z,37.91
2023-04-27T16:41:51.004Z,38.29
2023-04-27T16:44:17.434Z,38.90
2023-04-27T16:46:43.878Z,39.52
2023-04-27T16:49:10.308Z,40.33
2023-04-27T16:51:36.714Z,38.74
2023-04-27T16:54:03.508Z,39.48
2023-04-27T16:56:34.918Z,38.42
2023-04-27T16:59:01.314Z,38.86
2023-04-27T17:01:29.770Z,38.86
2023-04-27T17:03:57.683Z,39.54
2023-04-27T17:06:26.553Z,39.13
2023-04-27T17:08:52.923Z,39.28
2023-04-27T17:11:19.325Z,40.11
2023-04-27T17:13:46.837Z,40.85
2023-04-27T17:16:13.529Z,41.71
2023-04-27T17:18:40.006Z,40.78
2023-04-27T17:21:06.433Z,40.81
2023-04-27T17:23:33.810Z,41.21
2023-04-27T17:26:00.348Z,40.78
2023-04-27T17:28:26.739Z,41.26
2023-04-27T17:30:53.264Z,41.04
2023-04-27T17:33:19.576Z,40.60
2023-04-27T17:35:47.237Z,41.57
2023-04-27T17:38:14.163Z,41.52
2023-04-27T17:40:40.852Z,41.62
2023-04-27T17:43:08.029Z,41.86
2023-04-27T17:45:34.485Z,42.21
2023-04-27T17:48:01.276Z,42.59
2023-04-27T17:50:29.318Z,42.64
2023-04-27T17:52:55.862Z,42.75
2023-04-27T17:55:22.874Z,43.05
2023-04-27T17:57:49.854Z,43.56
2023-04-27T18:00:18.154Z,43.77
2023-04-27T18:02:46.145Z,43.88
2023-04-27T18:05:12.557Z,44.64
2023-04-27T18:07:38.959Z,45.63
2023-04-27T18:10:06.185Z,45.27
2023-04-27T18:12:32.713Z,45.95
2023-04-27T18:15:01.044Z,45.82
2023-04-27T18:17:29.284Z,46.18
2023-04-27T18:20:07.558Z,46.40
2023-04-27T18:22:36.232Z,46.70
2023-04-27T18:25:02.622Z,46.49
2023-04-27T18:27:28.977Z,46.64
2023-04-27T18:29:55.777Z,47.06
2023-04-27T18:32:23.028Z,47.27
2023-04-27T18:34:49.647Z,45.94
2023-04-27T18:37:16.239Z,46.87
2023-04-27T18:39:42.589Z,46.37
2023-04-27T18:42:08.897Z,46.13
2023-04-27T18:44:36.327Z,47.44
2023-04-27T18:47:03.365Z,49.17
2023-04-27T18:49:29.738Z,47.48
2023-04-27T18:51:56.101Z,47.17
2023-04-27T18:54:22.643Z,47.17
2023-04-27T18:56:52.848Z,47.59
2023-04-27T18:59:20.176Z,49.09
2023-04-27T19:01:46.696Z,51.42
2023-04-27T19:04:13.409Z,49.51
2023-04-27T19:06:41.971Z,48.40
2023-04-27T19:09:11.160Z,49.16
2023-04-27T19:11:37.479Z,50.77
2023-04-27T19:14:03.871Z,51.16
2023-04-27T19:16:30.505Z,50.34
2023-04-27T19:18:56.974Z,51.39
2023-04-27T19:21:23.414Z,50.66
2023-04-27T19:23:49.731Z,52.05
2023-04-27T19:26:16.120Z,50.77
2023-04-27T19:28:42.620Z,51.18
2023-04-27T19:31:09.888Z,52.93
2023-04-27T19:33:36.506Z,53.82
2023-04-27T19:36:02.870Z,52.45
2023-04-27T19:38:29.434Z,52.01
2023-04-27T19:40:55.765Z,51.56
2023-04-27T19:43:22.219Z,51.75
2023-04-27T19:45:51.539Z,52.90
2023-04-27T19:48:17.975Z,52.62
2023-04-27T19:50:44.345Z,52.72
2023-04-27T19:53:11.094Z,52.69
2023-04-27T19:55:37.742Z,53.12
2023-04-27T19:58:04.156Z,52.71
2023-04-27T20:00:30.624Z,53.13
2023-04-27T20:02:57.151Z,53.03
2023-04-27T20:05:23.877Z,52.65
2023-04-27T20:07:50.379Z,53.04
2023-04-27T20:10:16.857Z,53.95
2023-04-27T20:12:55.148Z,53.14
2023-04-27T20:15:22.874Z,53.96
2023-04-27T20:17:49.316Z,52.95
2023-04-27T20:20:15.812Z,54.20
2023-04-27T20:22:42.210Z,53.99
2023-04-27T20:25:08.916Z,54.79
2023-04-27T20:27:37.133Z,54.49
2023-04-27T20:30:04.202Z,53.31
2023-04-27T20:32:30.547Z,53.35
2023-04-27T20:34:56.930Z,53.38
2023-04-27T20:37:24.665Z,53.11
2023-04-27T20:39:52.065Z,52.99
2023-04-27T20:42:18.680Z,54.73
2023-04-27T20:44:48.418Z,54.48
2023-04-27T20:47:15.123Z,53.36
2023-04-27T20:49:46.068Z,53.06
2023-04-27T20:52:12.481Z,55.70
2023-04-27T20:54:39.638Z,53.94
2023-04-27T20:57:10.808Z,54.17
2023-04-27T20:59:37.134Z,53.66
2023-04-27T21:02:03.511Z,52.63
2023-04-27T21:04:30.009Z,52.55
2023-04-27T21:06:56.461Z,53.12
2023-04-27T21:09:22.829Z,53.50
2023-04-27T21:11:49.226Z,53.72
2023-04-27T21:14:15.867Z,53.33
2023-04-27T21:16:42.409Z,53.86
2023-04-27T21:19:09.811Z,55.51
2023-04-27T21:21:36.501Z,54.64
2023-04-27T21:24:08.202Z,54.01
2023-04-27T21:26:34.979Z,54.66
2023-04-27T21:29:01.502Z,54.64
2023-04-27T21:31:28.013Z,55.86
2023-04-27T21:33:54.404Z,55.66
2023-04-27T21:36:20.998Z,55.87
2023-04-27T21:38:47.481Z,56.18
2023-04-27T21:41:14.402Z,57.29
2023-04-27T21:43:41.999Z,56.88
2023-04-27T21:46:09.211Z,57.06
2023-04-27T21:48:35.749Z,57.29
2023-04-27T21:51:02.085Z,57.24
2023-04-27T21:53:30.554Z,57.90
2023-04-27T21:55:56.968Z,57.05
2023-04-27T21:58:23.326Z,56.91
2023-04-27T22:00:49.729Z,56.93
2023-04-27T22:03:16.181Z,56.55
2023-04-27T22:05:42.683Z,57.74
2023-04-27T22:08:09.518Z,57.58
2023-04-27T22:10:36.285Z,57.54
2023-04-27T22:13:14.702Z,57.92
2023-04-27T22:15:44.689Z,59.23
2023-04-27T22:18:11.174Z,58.99
2023-04-27T22:20:38.567Z,58.67
2023-04-27T22:23:04.930Z,58.82
2023-04-27T22:25:31.518Z,59.58
2023-04-27T22:27:58.030Z,58.50
2023-04-27T22:30:24.564Z,58.39
2023-04-27T22:32:51.139Z,57.93
2023-04-27T22:35:26.532Z,59.07
2023-04-27T22:37:55.176Z,58.19
2023-04-27T22:40:21.700Z,58.31
2023-04-27T22:42:48.028Z,57.59
2023-04-27T22:45:14.514Z,58.15
2023-04-27T22:47:41.309Z,57.79
2023-04-27T22:50:08.380Z,57.71
2023-04-27T22:52:34.822Z,57.84
2023-04-27T22:55:02.051Z,58.50
2023-04-27T22:57:28.810Z,57.83
2023-04-27T22:59:55.189Z,58.34
2023-04-27T23:02:21.611Z,58.89
2023-04-27T23:04:48.333Z,58.20
2023-04-27T23:07:18.389Z,58.41
2023-04-27T23:09:45.672Z,58.23
2023-04-27T23:12:12.032Z,57.64
2023-04-27T23:14:39.909Z,57.80
2023-04-27T23:17:07.363Z,57.80
2023-04-27T23:19:34.413Z,57.34
2023-04-27T23:22:01.750Z,57.67
2023-04-27T23:24:29.382Z,58.04
2023-04-27T23:26:55.961Z,58.51
2023-04-27T23:29:22.305Z,58.82
2023-04-27T23:31:48.682Z,58.61
2023-04-27T23:34:15.537Z,58.66
2023-04-27T23:36:42.127Z,58.82
2023-04-27T23:39:08.625Z,58.61
2023-04-27T23:41:34.944Z,58.57
2023-04-27T23:44:01.287Z,58.84
2023-04-27T23:46:27.952Z,59.07
2023-04-27T23:48:54.305Z,59.30
2023-04-27T23:51:20.760Z,58.83
2023-04-27T23:53:47.069Z,59.23
2023-04-27T23:56:19.812Z,59.27
2023-04-27T23:58:46.238Z,60.70
